sensor_id;sensor_type;location;lat;lon;timestamp;pressure;altitude;pressure_sealevel;temperature;humidity
3122;BME280;1571;52.524;14.104;2022-11-02T00:01:49;101394.69;;;6.84;100.00
3122;BME280;1571;52.524;14.104;2022-11-02T00:04:18;101397.13;;;6.91;100.00
3122;BME280;1571;52.524;14.104;2022-11-02T00:06:47;101398.38;;;6.80;100.00
3122;BME280;1571;52.524;14.104;2022-11-02T00:09:15;101399.28;;;6.79;100.00
3122;BME280;1571;52.524;14.104;2022-11-02T00:11:43;101400.75;;;6.63;100.00
3122;BME280;1571;52.524;14.104;2022-11-02T00:14:12;101398.13;;;6.63;100.00
3122;BME280;1571;52.524;14.104;2022-11-02T00:16:41;101399.94;;;6.61;100.00
3122;BME280;1571;52.524;14.104;2022-11-02T00:19:11;101399.03;;;6.62;100.00
3122;BME280;1571;52.524;14.104;2022-11-02T00:21:40;101409.50;;;6.65;100.00
3122;BME280;1571;52.524;14.104;2022-11-02T00:24:10;101405.91;;;6.66;100.00
3122;BME280;1571;52.524;14.104;2022-11-02T00:26:42;101412.34;;;6.59;100.00
3122;BME280;1571;52.524;14.104;2022-11-02T00:29:10;101424.50;;;6.63;100.00
3122;BME280;1571;52.524;14.104;2022-11-02T00:31:39;101413.63;;;6.47;100.00
3122;BME280;1571;52.524;14.104;2022-11-02T00:34:07;101408.34;;;6.47;100.00
3122;BME280;1571;52.524;14.104;2022-11-02T00:36:37;101411.72;;;6.51;100.00
3122;BME280;1571;52.524;14.104;2022-11-02T00:39:05;101408.41;;;6.45;100.00
3122;BME280;1571;52.524;14.104;2022-11-02T00:41:34;101413.19;;;6.34;100.00
3122;BME280;1571;52.524;14.104;2022-11-02T00:44:03;101416.13;;;6.25;100.00
3122;BME280;1571;52.524;14.104;2022-11-02T00:46:32;101405.34;;;6.33;100.00
3122;BME280;1571;52.524;14.104;2022-11-02T00:49:00;101415.44;;;6.20;100.00
3122;BME280;1571;52.524;14.104;2022-11-02T00:51:32;101416.75;;;6.33;100.00
3122;BME280;1571;52.524;14.104;2022-11-02T00:54:02;101416.75;;;6.33;100.00
3122;BME280;1571;52.524;14.104;2022-11-02T00:56:32;101415.31;;;6.23;100.00
3122;BME280;1571;52.524;14.104;2022-11-02T00:59:03;101413.75;;;6.17;100.00
3122;BME280;1571;52.524;14.104;2022-11-02T01:01:33;101403.97;;;6.21;100.00
3122;BME280;1571;52.524;14.104;2022-11-02T01:04:02;101391.66;;;6.21;100.00
3122;BME280;1571;52.524;14.104;2022-11-02T01:06:31;101402.25;;;6.20;100.00
3122;BME280;1571;52.524;14.104;2022-11-02T01:08:59;101395.88;;;6.25;100.00
3122;BME280;1571;52.524;14.104;2022-11-02T01:11:29;101397.66;;;6.25;100.00
3122;BME280;1571;52.524;14.104;2022-11-02T01:13:58;101404.56;;;6.29;100.00
3122;BME280;1571;52.524;14.104;2022-11-02T01:16:28;101408.59;;;6.39;100.00
3122;BME280;1571;52.524;14.104;2022-11-02T01:18:58;101398.53;;;6.51;100.00
3122;BME280;1571;52.524;14.104;2022-11-02T01:21:27;101392.03;;;6.61;100.00
3122;BME280;1571;52.524;14.104;2022-11-02T01:23:57;101394.69;;;6.61;100.00
3122;BME280;1571;52.524;14.104;2022-11-02T01:26:25;101395.84;;;6.52;100.00
3122;BME280;1571;52.524;14.104;2022-11-02T01:28:55;101390.09;;;6.41;100.00
3122;BME280;1571;52.524;14.104;2022-11-02T01:31:24;101389.25;;;6.40;100.00
3122;BME280;1571;52.524;14.104;2022-11-02T01:33:52;101393.38;;;6.47;100.00
3122;BME280;1571;52.524;14.104;2022-11-02T01:36:20;101389.84;;;6.49;100.00
3122;BME280;1571;52.524;14.104;2022-11-02T01:38:50;101385.94;;;6.59;100.00
3122;BME280;1571;52.524;14.104;2022-11-02T01:41:21;101391.03;;;6.65;100.00
3122;BME280;1571;52.524;14.104;2022-11-02T01:43:52;101382.28;;;6.63;100.00
3122;BME280;1571;52.524;14.104;2022-11-02T01:46:28;101372.72;;;6.60;100.00
3122;BME280;1571;52.524;14.104;2022-11-02T01:49:01;101368.88;;;6.69;100.00
3122;BME280;1571;52.524;14.104;2022-11-02T01:51:34;101363.34;;;6.52;100.00
3122;BME280;1571;52.524;14.104;2022-11-02T01:54:07;101364.25;;;6.51;100.00
3122;BME280;1571;52.524;14.104;2022-11-02T01:56:37;101349.47;;;6.46;100.00
3122;BME280;1571;52.524;14.104;2022-11-02T01:59:11;101345.91;;;6.47;100.00
3122;BME280;1571;52.524;14.104;2022-11-02T02:01:42;101358.41;;;6.42;100.00
3122;BME280;1571;52.524;14.104;2022-11-02T02:04:11;101366.16;;;6.22;100.00
3122;BME280;1571;52.524;14.104;2022-11-02T02:06:41;101367.28;;;6.40;100.00
3122;BME280;1571;52.524;14.104;2022-11-02T02:09:11;101377.06;;;6.61;100.00
3122;BME280;1571;52.524;14.104;2022-11-02T02:11:41;101386.56;;;6.67;100.00
3122;BME280;1571;52.524;14.104;2022-11-02T02:14:11;101387.91;;;6.77;100.00
3122;BME280;1571;52.524;14.104;2022-11-02T02:16:56;101398.72;;;6.95;100.00
3122;BME280;1571;52.524;14.104;2022-11-02T02:19:34;101401.50;;;7.15;100.00
3122;BME280;1571;52.524;14.104;2022-11-02T02:22:15;101396.84;;;7.22;100.00
3122;BME280;1571;52.524;14.104;2022-11-02T02:25:03;101402.44;;;7.14;100.00
3122;BME280;1571;52.524;14.104;2022-11-02T02:27:49;101394.09;;;7.01;100.00
3122;BME280;1571;52.524;14.104;2022-11-02T02:30:22;101398.50;;;7.01;100.00
3122;BME280;1571;52.524;14.104;2022-11-02T02:32:54;101397.31;;;7.09;100.00
3122;BME280;1571;52.524;14.104;2022-11-02T02:35:31;101391.72;;;7.17;100.00
3122;BME280;1571;52.524;14.104;2022-11-02T02:38:04;101392.66;;;7.16;100.00
3122;BME280;1571;52.524;14.104;2022-11-02T02:40:39;101396.88;;;7.20;100.00
3122;BME280;1571;52.524;14.104;2022-11-02T02:43:16;101385.66;;;7.15;100.00
3122;BME280;1571;52.524;14.104;2022-11-02T02:45:52;101392.41;;;7.22;100.00
3122;BME280;1571;52.524;14.104;2022-11-02T02:48:25;101387.88;;;7.26;100.00
3122;BME280;1571;52.524;14.104;2022-11-02T02:51:01;101389.72;;;7.24;100.00
3122;BME280;1571;52.524;14.104;2022-11-02T02:53:36;101399.31;;;7.26;100.00
3122;BME280;1571;52.524;14.104;2022-11-02T02:56:06;101401.66;;;7.34;100.00
3122;BME280;1571;52.524;14.104;2022-11-02T02:58:44;101402.88;;;7.25;100.00
3122;BME280;1571;52.524;14.104;2022-11-02T03:01:15;101387.75;;;7.29;100.00
3122;BME280;1571;52.524;14.104;2022-11-02T03:03:45;101406.69;;;7.18;100.00
3122;BME280;1571;52.524;14.104;2022-11-02T03:06:18;101396.78;;;7.23;100.00
3122;BME280;1571;52.524;14.104;2022-11-02T03:09:00;101396.38;;;7.11;100.00
3122;BME280;1571;52.524;14.104;2022-11-02T03:11:31;101408.25;;;7.22;100.00
3122;BME280;1571;52.524;14.104;2022-11-02T03:14:15;101404.38;;;7.33;100.00
3122;BME280;1571;52.524;14.104;2022-11-02T03:17:04;101397.13;;;7.38;100.00
3122;BME280;1571;52.524;14.104;2022-11-02T03:19:40;101395.41;;;7.37;100.00
3122;BME280;1571;52.524;14.104;2022-11-02T03:22:19;101399.25;;;7.28;100.00
3122;BME280;1571;52.524;14.104;2022-11-02T03:24:56;101402.41;;;7.38;100.00
3122;BME280;1571;52.524;14.104;2022-11-02T03:27:36;101416.19;;;7.46;100.00
3122;BME280;1571;52.524;14.104;2022-11-02T03:30:10;101399.22;;;7.29;100.00
3122;BME280;1571;52.524;14.104;2022-11-02T03:32:49;101405.22;;;7.33;100.00
3122;BME280;1571;52.524;14.104;2022-11-02T03:35:27;101405.22;;;7.33;100.00
3122;BME280;1571;52.524;14.104;2022-11-02T03:38:01;101410.31;;;7.38;100.00
3122;BME280;1571;52.524;14.104;2022-11-02T03:40:37;101407.69;;;7.38;100.00
3122;BME280;1571;52.524;14.104;2022-11-02T03:43:09;101405.84;;;7.40;100.00
3122;BME280;1571;52.524;14.104;2022-11-02T03:45:42;101408.97;;;7.27;100.00
3122;BME280;1571;52.524;14.104;2022-11-02T03:48:16;101407.41;;;7.22;100.00
3122;BME280;1571;52.524;14.104;2022-11-02T03:50:47;101406.56;;;7.21;100.00
3122;BME280;1571;52.524;14.104;2022-11-02T03:53:22;101407.13;;;7.29;100.00
3122;BME280;1571;52.524;14.104;2022-11-02T03:56:01;101414.00;;;7.34;100.00
3122;BME280;1571;52.524;14.104;2022-11-02T03:58:31;101416.91;;;7.27;100.00
3122;BME280;1571;52.524;14.104;2022-11-02T04:01:04;101417.78;;;7.26;100.00
3122;BME280;1571;52.524;14.104;2022-11-02T04:03:38;101417.63;;;7.31;100.00
3122;BME280;1571;52.524;14.104;2022-11-02T04:06:09;101417.75;;;7.28;100.00
3122;BME280;1571;52.524;14.104;2022-11-02T04:08:41;101420.59;;;7.22;100.00
3122;BME280;1571;52.524;14.104;2022-11-02T04:11:11;101421.53;;;7.21;100.00
3122;BME280;1571;52.524;14.104;2022-11-02T04:14:03;101431.97;;;7.24;100.00
3122;BME280;1571;52.524;14.104;2022-11-02T04:16:51;101427.91;;;7.15;100.00
3122;BME280;1571;52.524;14.104;2022-11-02T04:19:45;101427.81;;;7.18;100.00
3122;BME280;1571;52.524;14.104;2022-11-02T04:22:16;101435.44;;;7.26;100.00
3122;BME280;1571;52.524;14.104;2022-11-02T04:25:23;101417.56;;;7.09;100.00
3122;BME280;1571;52.524;14.104;2022-11-02T04:28:06;101427.44;;;7.04;100.00
3122;BME280;1571;52.524;14.104;2022-11-02T04:30:40;101421.25;;;7.05;100.00
3122;BME280;1571;52.524;14.104;2022-11-02T04:33:10;101424.56;;;7.10;100.00
3122;BME280;1571;52.524;14.104;2022-11-02T04:36:11;101426.28;;;7.11;100.00
3122;BME280;1571;52.524;14.104;2022-11-02T04:38:42;101416.28;;;6.96;100.00
3122;BME280;1571;52.524;14.104;2022-11-02T04:41:27;101426.41;;;7.08;100.00
3122;BME280;1571;52.524;14.104;2022-11-02T04:44:16;101425.47;;;6.85;100.00
3122;BME280;1571;52.524;14.104;2022-11-02T04:46:53;101429.22;;;7.03;100.00
3122;BME280;1571;52.524;14.104;2022-11-02T04:49:26;101429.56;;;6.94;100.00
3122;BME280;1571;52.524;14.104;2022-11-02T04:51:55;101433.19;;;6.92;100.00
3122;BME280;1571;52.524;14.104;2022-11-02T04:54:25;101434.72;;;6.97;100.00
3122;BME280;1571;52.524;14.104;2022-11-02T04:56:58;101426.78;;;6.97;100.00
3122;BME280;1571;52.524;14.104;2022-11-02T04:59:29;101432.72;;;7.04;100.00
3122;BME280;1571;52.524;14.104;2022-11-02T05:01:58;101440.75;;;7.01;100.00
3122;BME280;1571;52.524;14.104;2022-11-02T05:04:28;101435.19;;;7.08;100.00
3122;BME280;1571;52.524;14.104;2022-11-02T05:06:57;101437.19;;;7.02;100.00
3122;BME280;1571;52.524;14.104;2022-11-02T05:09:32;101437.31;;;6.99;100.00
3122;BME280;1571;52.524;14.104;2022-11-02T05:12:03;101444.22;;;7.03;100.00
3122;BME280;1571;52.524;14.104;2022-11-02T05:14:33;101439.81;;;7.02;100.00
3122;BME280;1571;52.524;14.104;2022-11-02T05:17:03;101430.53;;;6.92;100.00
3122;BME280;1571;52.524;14.104;2022-11-02T05:19:35;101440.75;;;7.01;100.00
3122;BME280;1571;52.524;14.104;2022-11-02T05:22:04;101440.84;;;6.98;100.00
3122;BME280;1571;52.524;14.104;2022-11-02T05:24:33;101440.84;;;6.98;100.00
3122;BME280;1571;52.524;14.104;2022-11-02T05:27:03;101453.34;;;6.93;100.00
3122;BME280;1571;52.524;14.104;2022-11-02T05:29:34;101445.81;;;6.82;100.00
3122;BME280;1571;52.524;14.104;2022-11-02T05:32:03;101454.66;;;6.81;100.00
3122;BME280;1571;52.524;14.104;2022-11-02T05:34:34;101453.56;;;6.86;100.00
3122;BME280;1571;52.524;14.104;2022-11-02T05:37:03;101464.03;;;6.90;100.00
3122;BME280;1571;52.524;14.104;2022-11-02T05:39:32;101456.88;;;6.68;100.00
3122;BME280;1571;52.524;14.104;2022-11-02T05:42:02;101455.53;;;6.81;100.00
3122;BME280;1571;52.524;14.104;2022-11-02T05:44:31;101455.84;;;6.72;100.00
3122;BME280;1571;52.524;14.104;2022-11-02T05:47:00;101467.91;;;6.79;100.00
3122;BME280;1571;52.524;14.104;2022-11-02T05:49:28;101469.00;;;6.74;100.00
3122;BME280;1571;52.524;14.104;2022-11-02T05:51:58;101467.91;;;6.79;100.00
3122;BME280;1571;52.524;14.104;2022-11-02T05:54:27;101471.31;;;6.83;100.00
3122;BME280;1571;52.524;14.104;2022-11-02T05:56:56;101465.66;;;6.94;100.00
3122;BME280;1571;52.524;14.104;2022-11-02T05:59:24;101472.78;;;6.92;100.00
3122;BME280;1571;52.524;14.104;2022-11-02T06:01:53;101467.38;;;6.95;100.00
3122;BME280;1571;52.524;14.104;2022-11-02T06:04:21;101475.41;;;6.92;100.00
3122;BME280;1571;52.524;14.104;2022-11-02T06:06:50;101470.94;;;6.94;100.00
3122;BME280;1571;52.524;14.104;2022-11-02T06:09:20;101474.22;;;7.00;100.00
3122;BME280;1571;52.524;14.104;2022-11-02T06:11:49;101484.81;;;6.99;100.00
3122;BME280;1571;52.524;14.104;2022-11-02T06:14:17;101481.59;;;6.91;100.00
3122;BME280;1571;52.524;14.104;2022-11-02T06:16:45;101472.53;;;6.98;100.00
3122;BME280;1571;52.524;14.104;2022-11-02T06:19:14;101470.94;;;6.94;100.00
3122;BME280;1571;52.524;14.104;2022-11-02T06:21:42;101479.75;;;6.93;100.00
3122;BME280;1571;52.524;14.104;2022-11-02T06:24:14;101478.47;;;6.79;100.00
3122;BME280;1571;52.524;14.104;2022-11-02T06:26:44;101481.78;;;6.84;100.00
3122;BME280;1571;52.524;14.104;2022-11-02T06:29:15;101471.47;;;7.03;100.00
3122;BME280;1571;52.524;14.104;2022-11-02T06:31:43;101483.22;;;6.95;100.00
3122;BME280;1571;52.524;14.104;2022-11-02T06:34:11;101469.63;;;7.05;100.00
3122;BME280;1571;52.524;14.104;2022-11-02T06:36:40;101485.72;;;6.98;100.00
3122;BME280;1571;52.524;14.104;2022-11-02T06:39:09;101491.59;;;7.06;100.00
3122;BME280;1571;52.524;14.104;2022-11-02T06:41:40;101481.09;;;7.04;100.00
3122;BME280;1571;52.524;14.104;2022-11-02T06:44:10;101479.09;;;7.11;100.00
3122;BME280;1571;52.524;14.104;2022-11-02T06:46:38;101467.97;;;7.26;100.00
3122;BME280;1571;52.524;14.104;2022-11-02T06:49:07;101479.63;;;7.21;100.00
3122;BME280;1571;52.524;14.104;2022-11-02T06:51:35;101478.31;;;7.33;100.00
3122;BME280;1571;52.524;14.104;2022-11-02T06:54:03;101476.56;;;7.32;100.00
3122;BME280;1571;52.524;14.104;2022-11-02T06:56:34;101473.75;;;7.36;100.00
3122;BME280;1571;52.524;14.104;2022-11-02T06:59:03;101472.47;;;7.48;100.00
3122;BME280;1571;52.524;14.104;2022-11-02T07:01:33;101478.38;;;7.55;100.00
3122;BME280;1571;52.524;14.104;2022-11-02T07:04:02;101475.66;;;7.56;100.00
3122;BME280;1571;52.524;14.104;2022-11-02T07:06:30;101476.38;;;7.61;100.00
3122;BME280;1571;52.524;14.104;2022-11-02T07:08:59;101474.84;;;7.78;100.00
3122;BME280;1571;52.524;14.104;2022-11-02T07:11:27;101471.25;;;7.79;100.00
3122;BME280;1571;52.524;14.104;2022-11-02T07:13:55;101475.59;;;8.03;100.00
3122;BME280;1571;52.524;14.104;2022-11-02T07:16:24;101471.34;;;7.99;100.00
3122;BME280;1571;52.524;14.104;2022-11-02T07:18:54;101472.31;;;7.97;100.00
3122;BME280;1571;52.524;14.104;2022-11-02T07:21:22;101471.75;;;8.10;100.00
3122;BME280;1571;52.524;14.104;2022-11-02T07:23:51;101476.72;;;8.20;100.00
3122;BME280;1571;52.524;14.104;2022-11-02T07:26:19;101475.09;;;8.16;100.00
3122;BME280;1571;52.524;14.104;2022-11-02T07:28:48;101477.00;;;8.34;100.00
3122;BME280;1571;52.524;14.104;2022-11-02T07:31:25;101472.44;;;8.38;100.00
3122;BME280;1571;52.524;14.104;2022-11-02T07:33:55;101473.75;;;8.49;100.00
3122;BME280;1571;52.524;14.104;2022-11-02T07:36:23;101469.75;;;8.60;100.00
3122;BME280;1571;52.524;14.104;2022-11-02T07:38:52;101470.38;;;8.66;100.00
3122;BME280;1571;52.524;14.104;2022-11-02T07:41:20;101461.13;;;8.77;100.00
3122;BME280;1571;52.524;14.104;2022-11-02T07:43:49;101453.13;;;8.78;100.00
3122;BME280;1571;52.524;14.104;2022-11-02T07:46:24;101439.56;;;9.05;100.00
3122;BME280;1571;52.524;14.104;2022-11-02T07:48:54;101444.84;;;9.05;100.00
3122;BME280;1571;52.524;14.104;2022-11-02T07:51:23;101428.47;;;8.96;100.00
3122;BME280;1571;52.524;14.104;2022-11-02T07:53:52;101427.31;;;9.02;100.00
3122;BME280;1571;52.524;14.104;2022-11-02T07:56:20;101417.88;;;9.15;100.00
3122;BME280;1571;52.524;14.104;2022-11-02T07:58:50;101429.59;;;9.30;100.00
3122;BME280;1571;52.524;14.104;2022-11-02T08:01:18;101407.44;;;9.31;100.00
3122;BME280;1571;52.524;14.104;2022-11-02T08:03:47;101405.66;;;9.51;100.00
3122;BME280;1571;52.524;14.104;2022-11-02T08:06:16;101404.72;;;9.52;100.00
3122;BME280;1571;52.524;14.104;2022-11-02T08:08:45;101395.50;;;9.42;100.00
3122;BME280;1571;52.524;14.104;2022-11-02T08:11:13;101393.03;;;9.56;100.00
3122;BME280;1571;52.524;14.104;2022-11-02T08:13:42;101381.88;;;9.86;100.00
3122;BME280;1571;52.524;14.104;2022-11-02T08:16:11;101379.72;;;9.94;100.00
3122;BME280;1571;52.524;14.104;2022-11-02T08:18:39;101382.19;;;9.97;100.00
3122;BME280;1571;52.524;14.104;2022-11-02T08:21:08;101375.59;;;10.06;100.00
3122;BME280;1571;52.524;14.104;2022-11-02T08:23:38;101371.53;;;10.16;100.00
3122;BME280;1571;52.524;14.104;2022-11-02T08:26:07;101369.19;;;10.27;100.00
3122;BME280;1571;52.524;14.104;2022-11-02T08:28:37;101366.47;;;10.29;100.00
3122;BME280;1571;52.524;14.104;2022-11-02T08:31:11;101363.34;;;10.38;100.00
3122;BME280;1571;52.524;14.104;2022-11-02T08:33:41;101357.78;;;10.60;100.00
3122;BME280;1571;52.524;14.104;2022-11-02T08:36:10;101352.94;;;10.68;100.00
3122;BME280;1571;52.524;14.104;2022-11-02T08:38:41;101348.47;;;10.69;100.00
3122;BME280;1571;52.524;14.104;2022-11-02T08:41:09;101341.28;;;10.71;100.00
3122;BME280;1571;52.524;14.104;2022-11-02T08:43:40;101350.16;;;10.87;100.00
3122;BME280;1571;52.524;14.104;2022-11-02T08:46:09;101342.34;;;10.84;100.00
3122;BME280;1571;52.524;14.104;2022-11-02T08:48:43;101343.59;;;10.94;100.00
3122;BME280;1571;52.524;14.104;2022-11-02T08:51:12;101332.44;;;11.03;100.00
3122;BME280;1571;52.524;14.104;2022-11-02T08:53:42;101329.81;;;11.19;100.00
3122;BME280;1571;52.524;14.104;2022-11-02T08:56:17;101329.53;;;11.40;100.00
3122;BME280;1571;52.524;14.104;2022-11-02T08:58:46;101330.19;;;11.43;100.00
3122;BME280;1571;52.524;14.104;2022-11-02T09:01:15;101345.81;;;11.50;100.00
3122;BME280;1571;52.524;14.104;2022-11-02T09:03:43;101345.63;;;11.53;100.00
3122;BME280;1571;52.524;14.104;2022-11-02T09:06:12;101350.22;;;11.51;100.00
3122;BME280;1571;52.524;14.104;2022-11-02T09:08:43;101342.84;;;11.24;100.00
3122;BME280;1571;52.524;14.104;2022-11-02T09:11:11;101351.66;;;11.24;100.00
3122;BME280;1571;52.524;14.104;2022-11-02T09:13:39;101344.78;;;11.20;100.00
3122;BME280;1571;52.524;14.104;2022-11-02T09:16:09;101353.03;;;11.16;100.00
3122;BME280;1571;52.524;14.104;2022-11-02T09:18:39;101349.25;;;11.36;100.00
3122;BME280;1571;52.524;14.104;2022-11-02T09:21:07;101342.72;;;11.25;100.00
3122;BME280;1571;52.524;14.104;2022-11-02T09:23:36;101350.38;;;11.32;100.00
3122;BME280;1571;52.524;14.104;2022-11-02T09:26:06;101349.06;;;11.55;100.00
3122;BME280;1571;52.524;14.104;2022-11-02T09:28:34;101349.47;;;11.79;100.00
3122;BME280;1571;52.524;14.104;2022-11-02T09:31:03;101355.63;;;11.79;100.00
3122;BME280;1571;52.524;14.104;2022-11-02T09:33:37;101352.84;;;11.66;100.00
3122;BME280;1571;52.524;14.104;2022-11-02T09:36:06;101354.53;;;11.83;100.00
3122;BME280;1571;52.524;14.104;2022-11-02T09:38:35;101352.13;;;11.79;100.00
3122;BME280;1571;52.524;14.104;2022-11-02T09:41:11;101354.72;;;11.80;100.00
3122;BME280;1571;52.524;14.104;2022-11-02T09:43:49;101350.06;;;11.84;100.00
3122;BME280;1571;52.524;14.104;2022-11-02T09:46:22;101360.53;;;11.87;100.00
3122;BME280;1571;52.524;14.104;2022-11-02T09:48:56;101354.22;;;11.90;100.00
3122;BME280;1571;52.524;14.104;2022-11-02T09:51:28;101352.91;;;11.97;100.00
3122;BME280;1571;52.524;14.104;2022-11-02T09:54:06;101356.31;;;11.99;100.00
3122;BME280;1571;52.524;14.104;2022-11-02T09:56:45;101353.47;;;12.02;100.00
3122;BME280;1571;52.524;14.104;2022-11-02T09:59:16;101356.63;;;12.08;100.00
3122;BME280;1571;52.524;14.104;2022-11-02T10:01:54;101360.97;;;12.25;100.00
3122;BME280;1571;52.524;14.104;2022-11-02T10:04:48;101362.28;;;12.18;99.43
3122;BME280;1571;52.524;14.104;2022-11-02T10:07:34;101358.09;;;12.14;99.79
3122;BME280;1571;52.524;14.104;2022-11-02T10:10:11;101360.75;;;12.14;98.73
3122;BME280;1571;52.524;14.104;2022-11-02T10:12:49;101358.44;;;12.08;98.73
3122;BME280;1571;52.524;14.104;2022-11-02T10:15:25;101356.22;;;12.31;97.69
3122;BME280;1571;52.524;14.104;2022-11-02T10:17:59;101361.75;;;12.42;97.16
3122;BME280;1571;52.524;14.104;2022-11-02T10:20:31;101348.72;;;12.37;96.79
3122;BME280;1571;52.524;14.104;2022-11-02T10:23:06;101349.25;;;12.73;95.93
3122;BME280;1571;52.524;14.104;2022-11-02T10:25:36;101350.84;;;12.75;95.08
3122;BME280;1571;52.524;14.104;2022-11-02T10:28:14;101345.63;;;12.88;95.08
3122;BME280;1571;52.524;14.104;2022-11-02T10:30:45;101355.72;;;12.97;94.19
3122;BME280;1571;52.524;14.104;2022-11-02T10:33:17;101348.44;;;13.13;91.80
3122;BME280;1571;52.524;14.104;2022-11-02T10:36:02;101349.84;;;13.19;91.25
3122;BME280;1571;52.524;14.104;2022-11-02T10:38:58;101356.84;;;13.07;91.62
3122;BME280;1571;52.524;14.104;2022-11-02T10:41:39;101353.69;;;13.29;89.72
3122;BME280;1571;52.524;14.104;2022-11-02T10:44:24;101358.22;;;13.42;88.06
3122;BME280;1571;52.524;14.104;2022-11-02T10:47:04;101356.31;;;13.44;87.11
3122;BME280;1571;52.524;14.104;2022-11-02T10:49:46;101352.81;;;13.43;87.01
3122;BME280;1571;52.524;14.104;2022-11-02T10:52:19;101355.25;;;13.46;87.36
3122;BME280;1571;52.524;14.104;2022-11-02T10:54:49;101365.16;;;13.59;87.06
3122;BME280;1571;52.524;14.104;2022-11-02T10:57:21;101367.22;;;13.68;85.73
3122;BME280;1571;52.524;14.104;2022-11-02T11:03:17;101360.31;;;13.78;84.04
3122;BME280;1571;52.524;14.104;2022-11-02T11:05:56;101359.91;;;13.84;83.56
3122;BME280;1571;52.524;14.104;2022-11-02T11:08:38;101356.47;;;13.82;82.21
3122;BME280;1571;52.524;14.104;2022-11-02T11:11:14;101359.13;;;13.82;82.04
3122;BME280;1571;52.524;14.104;2022-11-02T11:13:55;101369.88;;;13.95;81.73
3122;BME280;1571;52.524;14.104;2022-11-02T11:16:48;101366.53;;;13.91;81.62
3122;BME280;1571;52.524;14.104;2022-11-02T11:19:22;101372.59;;;14.08;81.15
3122;BME280;1571;52.524;14.104;2022-11-02T11:22:28;101372.38;;;14.11;81.27
3122;BME280;1571;52.524;14.104;2022-11-02T11:25:19;101373.25;;;14.24;80.33
3122;BME280;1571;52.524;14.104;2022-11-02T11:27:55;101372.72;;;14.19;79.84
3122;BME280;1571;52.524;14.104;2022-11-02T11:30:27;101377.09;;;14.20;78.37
3122;BME280;1571;52.524;14.104;2022-11-02T11:33:18;101379.13;;;14.29;77.78
3122;BME280;1571;52.524;14.104;2022-11-02T11:35:51;101385.56;;;14.40;77.18
3122;BME280;1571;52.524;14.104;2022-11-02T11:38:21;101381.38;;;14.35;75.68
3122;BME280;1571;52.524;14.104;2022-11-02T11:40:54;101382.53;;;14.31;76.22
3122;BME280;1571;52.524;14.104;2022-11-02T11:43:25;101388.44;;;14.49;75.82
3122;BME280;1571;52.524;14.104;2022-11-02T11:45:58;101382.34;;;14.47;74.92
3122;BME280;1571;52.524;14.104;2022-11-02T11:48:39;101397.22;;;14.51;74.47
3122;BME280;1571;52.524;14.104;2022-11-02T11:51:27;101395.00;;;14.58;73.34
3122;BME280;1571;52.524;14.104;2022-11-02T11:56:49;101398.34;;;14.62;73.53
3122;BME280;1571;52.524;14.104;2022-11-02T11:59:22;101401.34;;;14.57;74.47
3122;BME280;1571;52.524;14.104;2022-11-02T12:01:55;101400.44;;;14.44;74.93
3122;BME280;1571;52.524;14.104;2022-11-02T12:04:29;101383.78;;;14.66;74.46
3122;BME280;1571;52.524;14.104;2022-11-02T12:07:12;101397.69;;;14.71;74.11
3122;BME280;1571;52.524;14.104;2022-11-02T12:09:52;101396.63;;;14.86;73.14
3122;BME280;1571;52.524;14.104;2022-11-02T12:12:35;101410.94;;;14.72;73.57
3122;BME280;1571;52.524;14.104;2022-11-02T12:15:16;101417.25;;;14.58;73.98
3122;BME280;1571;52.524;14.104;2022-11-02T12:18:01;101402.19;;;14.83;72.93
3122;BME280;1571;52.524;14.104;2022-11-02T12:20:49;101404.66;;;14.73;73.45
3122;BME280;1571;52.524;14.104;2022-11-02T12:23:34;101415.25;;;14.75;74.44
3122;BME280;1571;52.524;14.104;2022-11-02T12:26:16;101406.16;;;14.77;72.05
3122;BME280;1571;52.524;14.104;2022-11-02T12:28:56;101423.88;;;14.78;72.10
3122;BME280;1571;52.524;14.104;2022-11-02T12:31:34;101420.38;;;14.78;71.92
3122;BME280;1571;52.524;14.104;2022-11-02T12:34:16;101423.78;;;14.80;71.06
3122;BME280;1571;52.524;14.104;2022-11-02T12:37:03;101426.97;;;14.72;71.27
3122;BME280;1571;52.524;14.104;2022-11-02T12:40:05;101428.47;;;14.76;71.48
3122;BME280;1571;52.524;14.104;2022-11-02T12:42:46;101424.19;;;14.61;71.83
3122;BME280;1571;52.524;14.104;2022-11-02T12:45:25;101423.09;;;14.51;71.56
3122;BME280;1571;52.524;14.104;2022-11-02T12:47:59;101425.75;;;14.51;71.71
3122;BME280;1571;52.524;14.104;2022-11-02T12:50:50;101431.41;;;14.46;72.17
3122;BME280;1571;52.524;14.104;2022-11-02T12:53:35;101434.09;;;14.46;72.31
3122;BME280;1571;52.524;14.104;2022-11-02T12:56:14;101431.59;;;14.30;73.24
3122;BME280;1571;52.524;14.104;2022-11-02T12:58:46;101436.81;;;14.32;73.25
3122;BME280;1571;52.524;14.104;2022-11-02T13:01:21;101436.72;;;14.33;73.19
3122;BME280;1571;52.524;14.104;2022-11-02T13:03:56;101436.03;;;14.17;73.56
3122;BME280;1571;52.524;14.104;2022-11-02T13:06:32;101433.50;;;14.28;72.69
3122;BME280;1571;52.524;14.104;2022-11-02T13:09:06;101425.72;;;14.38;72.66
3122;BME280;1571;52.524;14.104;2022-11-02T13:11:40;101428.22;;;14.41;72.47
3122;BME280;1571;52.524;14.104;2022-11-02T13:14:12;101432.00;;;14.24;73.57
3122;BME280;1571;52.524;14.104;2022-11-02T13:16:47;101431.72;;;14.42;73.42
3122;BME280;1571;52.524;14.104;2022-11-02T13:19:20;101431.09;;;14.51;72.50
3122;BME280;1571;52.524;14.104;2022-11-02T13:21:52;101432.31;;;14.60;71.97
3122;BME280;1571;52.524;14.104;2022-11-02T13:24:29;101429.84;;;14.56;71.14
3122;BME280;1571;52.524;14.104;2022-11-02T13:27:04;101443.25;;;14.42;71.63
3122;BME280;1571;52.524;14.104;2022-11-02T13:29:56;101442.28;;;14.30;71.47
3122;BME280;1571;52.524;14.104;2022-11-02T13:32:31;101459.09;;;14.18;71.57
3122;BME280;1571;52.524;14.104;2022-11-02T13:35:05;101452.84;;;14.05;71.69
3122;BME280;1571;52.524;14.104;2022-11-02T13:37:44;101456.13;;;13.95;71.79
3122;BME280;1571;52.524;14.104;2022-11-02T13:40:19;101460.72;;;13.93;70.94